sensor_id;sensor_type;location;lat;lon;timestamp;P1;durP1;ratioP1;P2;durP2;ratioP2
10641;SDS011;5369;49.586;8.646;2023-09-19T00:02:04;2.40;;;1.23;;
10641;SDS011;5369;49.586;8.646;2023-09-19T00:04:33;2.27;;;1.20;;
10641;SDS011;5369;49.586;8.646;2023-09-19T00:06:59;2.63;;;1.20;;
10641;SDS011;5369;49.586;8.646;2023-09-19T00:09:27;2.87;;;1.20;;
10641;SDS011;5369;49.586;8.646;2023-09-19T00:11:53;2.27;;;1.33;;
10641;SDS011;5369;49.586;8.646;2023-09-19T00:14:20;5.07;;;1.50;;
10641;SDS011;5369;49.586;8.646;2023-09-19T00:16:49;1.97;;;1.30;;
10641;SDS011;5369;49.586;8.646;2023-09-19T00:19:16;2.17;;;1.30;;
10641;SDS011;5369;49.586;8.646;2023-09-19T00:21:42;1.93;;;1.10;;
10641;SDS011;5369;49.586;8.646;2023-09-19T00:24:08;3.03;;;1.30;;
10641;SDS011;5369;49.586;8.646;2023-09-19T00:26:35;4.03;;;1.30;;
10641;SDS011;5369;49.586;8.646;2023-09-19T00:29:01;3.33;;;1.30;;
10641;SDS011;5369;49.586;8.646;2023-09-19T00:31:28;1.43;;;1.10;;
10641;SDS011;5369;49.586;8.646;2023-09-19T00:33:55;1.60;;;1.40;;
10641;SDS011;5369;49.586;8.646;2023-09-19T00:36:25;2.63;;;1.30;;
10641;SDS011;5369;49.586;8.646;2023-09-19T00:38:51;3.13;;;1.30;;
10641;SDS011;5369;49.586;8.646;2023-09-19T00:41:17;2.83;;;1.20;;
10641;SDS011;5369;49.586;8.646;2023-09-19T00:43:43;1.60;;;1.30;;
10641;SDS011;5369;49.586;8.646;2023-09-19T00:46:09;3.57;;;1.50;;
10641;SDS011;5369;49.586;8.646;2023-09-19T00:48:38;2.83;;;1.50;;
10641;SDS011;5369;49.586;8.646;2023-09-19T00:51:06;2.60;;;1.50;;
10641;SDS011;5369;49.586;8.646;2023-09-19T00:53:32;2.47;;;1.47;;
10641;SDS011;5369;49.586;8.646;2023-09-19T00:55:59;2.10;;;1.40;;
10641;SDS011;5369;49.586;8.646;2023-09-19T00:58:25;3.57;;;1.60;;
10641;SDS011;5369;49.586;8.646;2023-09-19T01:00:57;2.20;;;1.23;;
10641;SDS011;5369;49.586;8.646;2023-09-19T01:03:23;2.97;;;1.20;;
10641;SDS011;5369;49.586;8.646;2023-09-19T01:05:50;4.57;;;1.53;;
10641;SDS011;5369;49.586;8.646;2023-09-19T01:08:17;3.43;;;1.30;;
10641;SDS011;5369;49.586;8.646;2023-09-19T01:10:46;2.13;;;1.37;;
10641;SDS011;5369;49.586;8.646;2023-09-19T01:16:13;3.13;;;1.53;;
10641;SDS011;5369;49.586;8.646;2023-09-19T01:31:40;4.83;;;1.77;;
10641;SDS011;5369;49.586;8.646;2023-09-19T01:34:08;2.63;;;1.43;;
10641;SDS011;5369;49.586;8.646;2023-09-19T01:36:35;2.70;;;1.50;;
10641;SDS011;5369;49.586;8.646;2023-09-19T01:44:22;3.33;;;1.60;;
10641;SDS011;5369;49.586;8.646;2023-09-19T01:46:50;3.30;;;1.63;;
10641;SDS011;5369;49.586;8.646;2023-09-19T01:49:26;2.27;;;1.43;;
10641;SDS011;5369;49.586;8.646;2023-09-19T01:54:37;3.10;;;1.80;;
10641;SDS011;5369;49.586;8.646;2023-09-19T01:57:13;3.03;;;1.50;;
10641;SDS011;5369;49.586;8.646;2023-09-19T01:59:44;3.40;;;1.53;;
10641;SDS011;5369;49.586;8.646;2023-09-19T02:02:11;4.30;;;1.60;;
10641;SDS011;5369;49.586;8.646;2023-09-19T02:04:38;2.83;;;1.50;;
10641;SDS011;5369;49.586;8.646;2023-09-19T02:07:04;2.60;;;1.50;;
10641;SDS011;5369;49.586;8.646;2023-09-19T02:09:31;4.03;;;1.60;;
10641;SDS011;5369;49.586;8.646;2023-09-19T02:12:00;4.60;;;1.57;;
10641;SDS011;5369;49.586;8.646;2023-09-19T02:14:27;2.10;;;1.60;;
10641;SDS011;5369;49.586;8.646;2023-09-19T02:16:54;3.57;;;1.67;;
10641;SDS011;5369;49.586;8.646;2023-09-19T02:19:21;5.20;;;1.60;;
10641;SDS011;5369;49.586;8.646;2023-09-19T02:21:48;3.60;;;1.57;;
10641;SDS011;5369;49.586;8.646;2023-09-19T02:24:15;1.73;;;1.63;;
10641;SDS011;5369;49.586;8.646;2023-09-19T02:26:41;4.17;;;1.90;;
10641;SDS011;5369;49.586;8.646;2023-09-19T02:29:08;2.63;;;1.77;;
10641;SDS011;5369;49.586;8.646;2023-09-19T02:31:38;2.50;;;1.70;;
10641;SDS011;5369;49.586;8.646;2023-09-19T02:34:04;1.80;;;1.40;;
10641;SDS011;5369;49.586;8.646;2023-09-19T02:36:33;2.67;;;1.57;;
10641;SDS011;5369;49.586;8.646;2023-09-19T02:39:00;1.70;;;1.40;;
10641;SDS011;5369;49.586;8.646;2023-09-19T02:41:26;3.77;;;1.57;;
10641;SDS011;5369;49.586;8.646;2023-09-19T02:43:54;3.63;;;1.80;;
10641;SDS011;5369;49.586;8.646;2023-09-19T02:46:21;4.37;;;1.70;;
10641;SDS011;5369;49.586;8.646;2023-09-19T02:48:47;4.33;;;1.90;;
10641;SDS011;5369;49.586;8.646;2023-09-19T02:51:13;2.33;;;1.50;;
10641;SDS011;5369;49.586;8.646;2023-09-19T02:53:39;3.83;;;1.70;;
10641;SDS011;5369;49.586;8.646;2023-09-19T02:56:08;4.17;;;1.80;;
10641;SDS011;5369;49.586;8.646;2023-09-19T02:58:36;2.03;;;1.60;;
10641;SDS011;5369;49.586;8.646;2023-09-19T03:01:09;2.73;;;1.60;;
10641;SDS011;5369;49.586;8.646;2023-09-19T03:03:38;3.13;;;1.63;;
10641;SDS011;5369;49.586;8.646;2023-09-19T03:06:05;2.60;;;1.50;;
10641;SDS011;5369;49.586;8.646;2023-09-19T03:08:34;2.37;;;1.53;;
10641;SDS011;5369;49.586;8.646;2023-09-19T03:11:05;2.93;;;1.70;;
10641;SDS011;5369;49.586;8.646;2023-09-19T03:13:33;2.67;;;1.70;;
10641;SDS011;5369;49.586;8.646;2023-09-19T03:16:02;2.43;;;1.60;;
10641;SDS011;5369;49.586;8.646;2023-09-19T03:18:31;5.13;;;1.70;;
10641;SDS011;5369;49.586;8.646;2023-09-19T03:20:57;2.40;;;1.67;;
10641;SDS011;5369;49.586;8.646;2023-09-19T03:23:28;3.67;;;1.70;;
10641;SDS011;5369;49.586;8.646;2023-09-19T03:25:55;2.50;;;1.60;;
10641;SDS011;5369;49.586;8.646;2023-09-19T03:28:22;2.53;;;1.63;;
10641;SDS011;5369;49.586;8.646;2023-09-19T03:30:58;2.53;;;1.70;;
10641;SDS011;5369;49.586;8.646;2023-09-19T03:33:26;4.33;;;3.90;;
10641;SDS011;5369;49.586;8.646;2023-09-19T03:35:53;4.50;;;2.43;;
10641;SDS011;5369;49.586;8.646;2023-09-19T03:38:20;3.20;;;2.10;;
10641;SDS011;5369;49.586;8.646;2023-09-19T03:40:47;3.13;;;1.80;;
10641;SDS011;5369;49.586;8.646;2023-09-19T03:43:14;2.60;;;1.70;;
10641;SDS011;5369;49.586;8.646;2023-09-19T03:45:40;2.50;;;1.77;;
10641;SDS011;5369;49.586;8.646;2023-09-19T03:48:08;3.27;;;1.90;;
10641;SDS011;5369;49.586;8.646;2023-09-19T03:50:34;2.87;;;2.00;;
10641;SDS011;5369;49.586;8.646;2023-09-19T03:53:00;2.63;;;1.70;;
10641;SDS011;5369;49.586;8.646;2023-09-19T03:55:27;3.77;;;1.93;;
10641;SDS011;5369;49.586;8.646;2023-09-19T03:57:55;4.93;;;1.90;;
10641;SDS011;5369;49.586;8.646;2023-09-19T04:00:21;3.17;;;1.70;;
10641;SDS011;5369;49.586;8.646;2023-09-19T04:02:49;3.83;;;2.10;;
10641;SDS011;5369;49.586;8.646;2023-09-19T04:05:15;4.90;;;2.00;;
10641;SDS011;5369;49.586;8.646;2023-09-19T04:07:41;2.80;;;2.50;;
10641;SDS011;5369;49.586;8.646;2023-09-19T04:10:08;3.40;;;2.50;;
10641;SDS011;5369;49.586;8.646;2023-09-19T04:12:37;5.00;;;2.90;;
10641;SDS011;5369;49.586;8.646;2023-09-19T04:15:06;3.30;;;2.60;;
10641;SDS011;5369;49.586;8.646;2023-09-19T04:17:33;7.10;;;3.07;;
10641;SDS011;5369;49.586;8.646;2023-09-19T04:20:00;3.60;;;2.67;;
10641;SDS011;5369;49.586;8.646;2023-09-19T04:22:26;4.03;;;2.83;;
10641;SDS011;5369;49.586;8.646;2023-09-19T04:24:52;4.60;;;2.90;;
10641;SDS011;5369;49.586;8.646;2023-09-19T04:27:18;5.63;;;2.63;;
10641;SDS011;5369;49.586;8.646;2023-09-19T04:29:44;3.57;;;2.80;;
10641;SDS011;5369;49.586;8.646;2023-09-19T04:32:10;4.13;;;2.83;;
10641;SDS011;5369;49.586;8.646;2023-09-19T04:34:38;5.50;;;2.63;;
10641;SDS011;5369;49.586;8.646;2023-09-19T04:37:04;5.57;;;3.03;;
10641;SDS011;5369;49.586;8.646;2023-09-19T04:39:30;4.07;;;3.10;;
10641;SDS011;5369;49.586;8.646;2023-09-19T04:41:57;5.83;;;3.30;;
10641;SDS011;5369;49.586;8.646;2023-09-19T04:44:24;3.47;;;3.17;;
10641;SDS011;5369;49.586;8.646;2023-09-19T04:46:50;4.90;;;3.30;;
10641;SDS011;5369;49.586;8.646;2023-09-19T04:49:16;5.17;;;3.00;;
10641;SDS011;5369;49.586;8.646;2023-09-19T04:51:43;3.87;;;3.10;;
10641;SDS011;5369;49.586;8.646;2023-09-19T04:54:11;5.17;;;3.10;;
10641;SDS011;5369;49.586;8.646;2023-09-19T04:56:38;5.07;;;2.90;;
10641;SDS011;5369;49.586;8.646;2023-09-19T04:59:05;2.57;;;2.37;;
10641;SDS011;5369;49.586;8.646;2023-09-19T05:01:32;3.97;;;2.80;;
10641;SDS011;5369;49.586;8.646;2023-09-19T05:03:58;3.50;;;3.07;;
10641;SDS011;5369;49.586;8.646;2023-09-19T05:06:24;4.57;;;3.03;;
10641;SDS011;5369;49.586;8.646;2023-09-19T05:08:51;5.77;;;3.10;;
10641;SDS011;5369;49.586;8.646;2023-09-19T05:11:21;4.47;;;3.70;;
10641;SDS011;5369;49.586;8.646;2023-09-19T05:13:48;4.20;;;3.30;;
10641;SDS011;5369;49.586;8.646;2023-09-19T05:16:21;3.87;;;3.13;;
10641;SDS011;5369;49.586;8.646;2023-09-19T05:18:47;4.67;;;2.97;;
10641;SDS011;5369;49.586;8.646;2023-09-19T05:21:14;5.07;;;2.80;;
10641;SDS011;5369;49.586;8.646;2023-09-19T05:23:41;6.10;;;2.70;;
10641;SDS011;5369;49.586;8.646;2023-09-19T05:26:07;3.53;;;2.63;;
10641;SDS011;5369;49.586;8.646;2023-09-19T05:28:33;4.77;;;2.73;;
10641;SDS011;5369;49.586;8.646;2023-09-19T05:31:00;4.53;;;2.90;;
10641;SDS011;5369;49.586;8.646;2023-09-19T05:33:27;4.30;;;3.10;;
10641;SDS011;5369;49.586;8.646;2023-09-19T05:35:54;4.40;;;2.87;;
10641;SDS011;5369;49.586;8.646;2023-09-19T05:38:21;4.43;;;2.70;;
10641;SDS011;5369;49.586;8.646;2023-09-19T05:40:48;4.80;;;2.50;;
10641;SDS011;5369;49.586;8.646;2023-09-19T05:43:14;4.43;;;3.10;;
10641;SDS011;5369;49.586;8.646;2023-09-19T05:45:40;5.83;;;2.80;;
10641;SDS011;5369;49.586;8.646;2023-09-19T05:48:07;3.83;;;2.70;;
10641;SDS011;5369;49.586;8.646;2023-09-19T05:50:34;3.83;;;2.50;;
10641;SDS011;5369;49.586;8.646;2023-09-19T05:53:01;4.27;;;2.60;;
10641;SDS011;5369;49.586;8.646;2023-09-19T05:55:27;3.10;;;2.50;;
10641;SDS011;5369;49.586;8.646;2023-09-19T05:57:53;5.73;;;2.93;;
10641;SDS011;5369;49.586;8.646;2023-09-19T06:00:20;3.30;;;2.53;;
10641;SDS011;5369;49.586;8.646;2023-09-19T06:02:50;7.37;;;3.03;;
10641;SDS011;5369;49.586;8.646;2023-09-19T06:05:17;3.63;;;2.67;;
10641;SDS011;5369;49.586;8.646;2023-09-19T06:07:43;4.13;;;2.50;;
10641;SDS011;5369;49.586;8.646;2023-09-19T06:10:09;4.47;;;2.73;;
10641;SDS011;5369;49.586;8.646;2023-09-19T06:12:39;3.73;;;2.63;;
10641;SDS011;5369;49.586;8.646;2023-09-19T06:15:05;4.73;;;3.00;;
10641;SDS011;5369;49.586;8.646;2023-09-19T06:17:34;5.73;;;2.67;;
10641;SDS011;5369;49.586;8.646;2023-09-19T06:20:04;5.13;;;2.90;;
10641;SDS011;5369;49.586;8.646;2023-09-19T06:22:36;4.83;;;2.80;;
10641;SDS011;5369;49.586;8.646;2023-09-19T06:25:03;4.57;;;2.93;;
10641;SDS011;5369;49.586;8.646;2023-09-19T06:27:29;5.30;;;2.70;;
10641;SDS011;5369;49.586;8.646;2023-09-19T06:29:55;5.87;;;2.70;;
10641;SDS011;5369;49.586;8.646;2023-09-19T06:32:28;5.67;;;2.57;;
10641;SDS011;5369;49.586;8.646;2023-09-19T06:34:54;7.37;;;3.10;;
10641;SDS011;5369;49.586;8.646;2023-09-19T06:37:21;5.47;;;2.70;;
10641;SDS011;5369;49.586;8.646;2023-09-19T06:39:47;7.23;;;2.60;;
10641;SDS011;5369;49.586;8.646;2023-09-19T06:42:14;6.70;;;2.43;;
10641;SDS011;5369;49.586;8.646;2023-09-19T06:44:42;6.13;;;2.70;;
10641;SDS011;5369;49.586;8.646;2023-09-19T06:47:09;5.60;;;2.40;;
10641;SDS011;5369;49.586;8.646;2023-09-19T06:49:36;3.83;;;2.20;;
10641;SDS011;5369;49.586;8.646;2023-09-19T06:52:02;6.43;;;2.20;;
10641;SDS011;5369;49.586;8.646;2023-09-19T06:54:28;4.97;;;2.60;;
10641;SDS011;5369;49.586;8.646;2023-09-19T06:56:56;4.77;;;2.30;;
10641;SDS011;5369;49.586;8.646;2023-09-19T06:59:25;9.30;;;2.60;;
10641;SDS011;5369;49.586;8.646;2023-09-19T07:01:52;5.23;;;2.30;;
10641;SDS011;5369;49.586;8.646;2023-09-19T07:04:18;4.67;;;2.20;;
10641;SDS011;5369;49.586;8.646;2023-09-19T07:06:50;4.20;;;1.90;;
10641;SDS011;5369;49.586;8.646;2023-09-19T07:09:17;5.47;;;2.37;;
10641;SDS011;5369;49.586;8.646;2023-09-19T07:11:45;4.17;;;2.00;;
10641;SDS011;5369;49.586;8.646;2023-09-19T07:14:13;7.33;;;2.23;;
10641;SDS011;5369;49.586;8.646;2023-09-19T07:16:39;4.83;;;2.27;;
10641;SDS011;5369;49.586;8.646;2023-09-19T07:19:07;4.93;;;2.30;;
10641;SDS011;5369;49.586;8.646;2023-09-19T07:21:33;4.03;;;1.90;;
10641;SDS011;5369;49.586;8.646;2023-09-19T07:24:04;3.87;;;2.10;;
10641;SDS011;5369;49.586;8.646;2023-09-19T07:26:32;3.37;;;2.00;;
10641;SDS011;5369;49.586;8.646;2023-09-19T07:28:59;5.13;;;1.80;;
10641;SDS011;5369;49.586;8.646;2023-09-19T07:31:29;5.40;;;2.20;;
10641;SDS011;5369;49.586;8.646;2023-09-19T07:33:56;6.93;;;2.20;;
10641;SDS011;5369;49.586;8.646;2023-09-19T07:36:22;3.93;;;2.00;;
10641;SDS011;5369;49.586;8.646;2023-09-19T07:38:49;4.20;;;1.90;;
10641;SDS011;5369;49.586;8.646;2023-09-19T07:41:15;5.20;;;2.10;;
10641;SDS011;5369;49.586;8.646;2023-09-19T07:43:42;3.77;;;2.10;;
10641;SDS011;5369;49.586;8.646;2023-09-19T07:46:09;4.57;;;2.10;;
10641;SDS011;5369;49.586;8.646;2023-09-19T07:48:36;5.13;;;2.13;;
10641;SDS011;5369;49.586;8.646;2023-09-19T07:51:03;5.40;;;2.20;;
10641;SDS011;5369;49.586;8.646;2023-09-19T07:53:31;4.57;;;2.03;;
10641;SDS011;5369;49.586;8.646;2023-09-19T07:56:03;5.87;;;2.10;;
10641;SDS011;5369;49.586;8.646;2023-09-19T07:58:29;5.43;;;2.30;;
10641;SDS011;5369;49.586;8.646;2023-09-19T08:00:56;4.70;;;2.40;;
10641;SDS011;5369;49.586;8.646;2023-09-19T08:03:27;3.63;;;2.40;;
10641;SDS011;5369;49.586;8.646;2023-09-19T08:05:56;4.43;;;2.90;;
10641;SDS011;5369;49.586;8.646;2023-09-19T08:08:26;4.20;;;2.70;;
10641;SDS011;5369;49.586;8.646;2023-09-19T08:10:55;3.73;;;2.60;;
10641;SDS011;5369;49.586;8.646;2023-09-19T08:13:23;6.13;;;3.00;;
10641;SDS011;5369;49.586;8.646;2023-09-19T08:15:49;3.97;;;2.67;;
10641;SDS011;5369;49.586;8.646;2023-09-19T08:18:16;3.83;;;2.80;;
10641;SDS011;5369;49.586;8.646;2023-09-19T08:20:43;5.03;;;2.70;;
10641;SDS011;5369;49.586;8.646;2023-09-19T08:23:14;3.30;;;2.70;;
10641;SDS011;5369;49.586;8.646;2023-09-19T08:25:44;3.77;;;2.90;;
10641;SDS011;5369;49.586;8.646;2023-09-19T08:28:13;4.07;;;2.30;;
10641;SDS011;5369;49.586;8.646;2023-09-19T08:30:47;4.57;;;2.67;;
10641;SDS011;5369;49.586;8.646;2023-09-19T08:33:16;4.87;;;2.90;;
10641;SDS011;5369;49.586;8.646;2023-09-19T08:35:42;5.40;;;2.60;;
10641;SDS011;5369;49.586;8.646;2023-09-19T08:38:10;4.30;;;2.53;;
10641;SDS011;5369;49.586;8.646;2023-09-19T08:40:37;4.10;;;2.50;;
10641;SDS011;5369;49.586;8.646;2023-09-19T08:43:05;4.53;;;2.87;;
10641;SDS011;5369;49.586;8.646;2023-09-19T08:45:33;3.53;;;2.60;;
10641;SDS011;5369;49.586;8.646;2023-09-19T08:50:33;4.70;;;2.77;;
10641;SDS011;5369;49.586;8.646;2023-09-19T08:53:03;4.67;;;2.80;;
10641;SDS011;5369;49.586;8.646;2023-09-19T08:55:33;6.50;;;2.80;;
10641;SDS011;5369;49.586;8.646;2023-09-19T08:58:00;5.57;;;2.40;;
10641;SDS011;5369;49.586;8.646;2023-09-19T09:00:27;5.40;;;2.90;;
10641;SDS011;5369;49.586;8.646;2023-09-19T09:02:57;3.80;;;2.80;;
10641;SDS011;5369;49.586;8.646;2023-09-19T09:05:24;4.10;;;2.67;;
10641;SDS011;5369;49.586;8.646;2023-09-19T09:07:52;3.17;;;2.20;;
10641;SDS011;5369;49.586;8.646;2023-09-19T09:10:20;4.40;;;2.50;;
10641;SDS011;5369;49.586;8.646;2023-09-19T09:12:52;3.70;;;2.63;;
10641;SDS011;5369;49.586;8.646;2023-09-19T09:15:21;4.80;;;2.80;;
10641;SDS011;5369;49.586;8.646;2023-09-19T09:17:48;6.20;;;3.00;;
10641;SDS011;5369;49.586;8.646;2023-09-19T09:20:17;5.30;;;2.70;;
10641;SDS011;5369;49.586;8.646;2023-09-19T09:22:50;4.03;;;2.83;;
10641;SDS011;5369;49.586;8.646;2023-09-19T09:25:17;4.13;;;2.70;;
10641;SDS011;5369;49.586;8.646;2023-09-19T09:27:45;4.60;;;3.00;;
10641;SDS011;5369;49.586;8.646;2023-09-19T09:30:12;6.90;;;3.00;;
10641;SDS011;5369;49.586;8.646;2023-09-19T09:33:11;3.93;;;3.00;;
10641;SDS011;5369;49.586;8.646;2023-09-19T09:35:46;4.10;;;2.57;;
10641;SDS011;5369;49.586;8.646;2023-09-19T09:38:16;3.20;;;2.60;;
10641;SDS011;5369;49.586;8.646;2023-09-19T09:40:50;4.03;;;2.50;;
10641;SDS011;5369;49.586;8.646;2023-09-19T09:43:35;5.13;;;2.70;;
10641;SDS011;5369;49.586;8.646;2023-09-19T09:46:12;5.70;;;2.80;;
10641;SDS011;5369;49.586;8.646;2023-09-19T09:48:44;4.63;;;2.67;;
10641;SDS011;5369;49.586;8.646;2023-09-19T09:51:31;3.30;;;2.50;;
10641;SDS011;5369;49.586;8.646;2023-09-19T09:54:14;4.83;;;2.97;;
10641;SDS011;5369;49.586;8.646;2023-09-19T09:56:51;6.33;;;2.23;;
10641;SDS011;5369;49.586;8.646;2023-09-19T09:59:20;3.70;;;2.20;;
10641;SDS011;5369;49.586;8.646;2023-09-19T10:01:49;5.80;;;2.30;;
10641;SDS011;5369;49.586;8.646;2023-09-19T10:04:28;3.70;;;2.03;;
10641;SDS011;5369;49.586;8.646;2023-09-19T10:07:01;5.40;;;2.37;;
10641;SDS011;5369;49.586;8.646;2023-09-19T10:09:47;4.63;;;2.33;;
10641;SDS011;5369;49.586;8.646;2023-09-19T10:12:13;6.37;;;2.43;;
10641;SDS011;5369;49.586;8.646;2023-09-19T10:14:41;4.47;;;2.40;;
10641;SDS011;5369;49.586;8.646;2023-09-19T10:17:10;5.50;;;2.27;;
10641;SDS011;5369;49.586;8.646;2023-09-19T10:19:42;3.90;;;2.10;;
10641;SDS011;5369;49.586;8.646;2023-09-19T10:22:12;6.97;;;2.33;;
10641;SDS011;5369;49.586;8.646;2023-09-19T10:24:39;4.43;;;2.50;;
10641;SDS011;5369;49.586;8.646;2023-09-19T10:27:06;6.87;;;2.53;;
10641;SDS011;5369;49.586;8.646;2023-09-19T10:29:36;4.63;;;2.50;;
10641;SDS011;5369;49.586;8.646;2023-09-19T10:32:05;5.90;;;2.67;;
10641;SDS011;5369;49.586;8.646;2023-09-19T10:34:34;4.20;;;2.40;;
10641;SDS011;5369;49.586;8.646;2023-09-19T10:37:02;3.93;;;2.23;;
10641;SDS011;5369;49.586;8.646;2023-09-19T10:39:31;4.20;;;2.20;;
10641;SDS011;5369;49.586;8.646;2023-09-19T10:42:01;4.40;;;2.40;;
10641;SDS011;5369;49.586;8.646;2023-09-19T10:44:32;7.03;;;2.27;;
10641;SDS011;5369;49.586;8.646;2023-09-19T10:46:58;5.90;;;2.50;;
10641;SDS011;5369;49.586;8.646;2023-09-19T10:49:25;6.40;;;2.53;;
10641;SDS011;5369;49.586;8.646;2023-09-19T10:51:52;6.90;;;2.43;;
10641;SDS011;5369;49.586;8.646;2023-09-19T10:54:21;4.87;;;3.10;;
10641;SDS011;5369;49.586;8.646;2023-09-19T10:56:54;5.10;;;2.40;;
10641;SDS011;5369;49.586;8.646;2023-09-19T10:59:24;4.70;;;2.27;;
10641;SDS011;5369;49.586;8.646;2023-09-19T11:01:56;3.23;;;1.90;;
10641;SDS011;5369;49.586;8.646;2023-09-19T11:04:23;3.07;;;1.70;;
10641;SDS011;5369;49.586;8.646;2023-09-19T11:07:02;3.93;;;1.93;;
10641;SDS011;5369;49.586;8.646;2023-09-19T11:09:47;3.03;;;1.77;;
10641;SDS011;5369;49.586;8.646;2023-09-19T11:15:06;6.30;;;1.90;;
10641;SDS011;5369;49.586;8.646;2023-09-19T11:17:42;6.23;;;1.63;;
10641;SDS011;5369;49.586;8.646;2023-09-19T11:30:43;3.10;;;1.80;;
10641;SDS011;5369;49.586;8.646;2023-09-19T11:33:25;2.50;;;1.43;;
10641;SDS011;5369;49.586;8.646;2023-09-19T11:36:14;3.40;;;1.83;;
10641;SDS011;5369;49.586;8.646;2023-09-19T11:46:33;3.17;;;1.80;;
10641;SDS011;5369;49.586;8.646;2023-09-19T11:49:06;3.43;;;1.50;;
10641;SDS011;5369;49.586;8.646;2023-09-19T11:51:42;3.00;;;1.40;;
10641;SDS011;5369;49.586;8.646;2023-09-19T11:54:12;3.47;;;1.60;;
10641;SDS011;5369;49.586;8.646;2023-09-19T11:56:43;3.20;;;1.60;;
10641;SDS011;5369;49.586;8.646;2023-09-19T11:59:10;4.50;;;1.70;;
10641;SDS011;5369;49.586;8.646;2023-09-19T12:01:37;3.40;;;1.70;;
10641;SDS011;5369;49.586;8.646;2023-09-19T12:04:08;5.20;;;1.70;;
10641;SDS011;5369;49.586;8.646;2023-09-19T12:06:37;2.27;;;1.47;;
10641;SDS011;5369;49.586;8.646;2023-09-19T12:09:13;4.87;;;1.70;;
10641;SDS011;5369;49.586;8.646;2023-09-19T12:11:42;4.07;;;1.70;;
10641;SDS011;5369;49.586;8.646;2023-09-19T12:14:21;4.03;;;1.70;;
10641;SDS011;5369;49.586;8.646;2023-09-19T12:16:51;4.43;;;1.80;;
10641;SDS011;5369;49.586;8.646;2023-09-19T12:19:21;3.03;;;1.73;;
10641;SDS011;5369;49.586;8.646;2023-09-19T12:22:00;5.37;;;1.77;;
10641;SDS011;5369;49.586;8.646;2023-09-19T12:24:29;4.07;;;1.60;;
10641;SDS011;5369;49.586;8.646;2023-09-19T12:27:01;4.23;;;1.87;;
10641;SDS011;5369;49.586;8.646;2023-09-19T12:29:29;5.00;;;2.10;;
10641;SDS011;5369;49.586;8.646;2023-09-19T12:31:57;2.37;;;1.40;;
10641;SDS011;5369;49.586;8.646;2023-09-19T12:34:24;2.97;;;1.60;;
10641;SDS011;5369;49.586;8.646;2023-09-19T12:39:41;2.57;;;1.37;;
10641;SDS011;5369;49.586;8.646;2023-09-19T12:42:12;4.70;;;1.63;;
10641;SDS011;5369;49.586;8.646;2023-09-19T12:44:43;3.20;;;1.50;;
10641;SDS011;5369;49.586;8.646;2023-09-19T12:47:10;5.00;;;1.70;;
10641;SDS011;5369;49.586;8.646;2023-09-19T12:49:36;3.10;;;1.70;;
10641;SDS011;5369;49.586;8.646;2023-09-19T12:52:02;3.13;;;1.50;;
10641;SDS011;5369;49.586;8.646;2023-09-19T12:54:37;3.57;;;1.87;;
10641;SDS011;5369;49.586;8.646;2023-09-19T12:57:04;5.93;;;1.57;;
10641;SDS011;5369;49.586;8.646;2023-09-19T12:59:30;2.70;;;1.50;;
10641;SDS011;5369;49.586;8.646;2023-09-19T13:02:06;3.47;;;1.70;;
10641;SDS011;5369;49.586;8.646;2023-09-19T13:04:34;2.37;;;1.50;;
10641;SDS011;5369;49.586;8.646;2023-09-19T13:07:05;4.50;;;1.50;;
10641;SDS011;5369;49.586;8.646;2023-09-19T13:09:33;2.60;;;1.50;;
10641;SDS011;5369;49.586;8.646;2023-09-19T13:12:03;3.43;;;1.37;;
10641;SDS011;5369;49.586;8.646;2023-09-19T13:14:32;2.87;;;1.43;;
10641;SDS011;5369;49.586;8.646;2023-09-19T13:17:06;2.57;;;1.57;;
10641;SDS011;5369;49.586;8.646;2023-09-19T13:19:45;4.90;;;1.80;;
10641;SDS011;5369;49.586;8.646;2023-09-19T13:24:59;2.27;;;1.60;;
10641;SDS011;5369;49.586;8.646;2023-09-19T13:27:26;4.23;;;1.30;;
10641;SDS011;5369;49.586;8.646;2023-09-19T13:29:54;2.30;;;1.70;;
10641;SDS011;5369;49.586;8.646;2023-09-19T13:32:20;4.90;;;1.90;;
10641;SDS011;5369;49.586;8.646;2023-09-19T13:34:46;4.50;;;1.70;;
10641;SDS011;5369;49.586;8.646;2023-09-19T13:37:12;2.57;;;1.40;;
10641;SDS011;5369;49.586;8.646;2023-09-19T13:39:39;3.47;;;1.83;;
10641;SDS011;5369;49.586;8.646;2023-09-19T13:42:12;3.30;;;1.70;;
10641;SDS011;5369;49.586;8.646;2023-09-19T13:44:39;2.50;;;1.50;;
10641;SDS011;5369;49.586;8.646;2023-09-19T13:47:06;3.93;;;1.73;;
10641;SDS011;5369;49.586;8.646;2023-09-19T13:49:35;1.83;;;1.50;;
10641;SDS011;5369;49.586;8.646;2023-09-19T13:52:03;4.57;;;1.73;;
10641;SDS011;5369;49.586;8.646;2023-09-19T13:54:30;2.40;;;1.57;;
10641;SDS011;5369;49.586;8.646;2023-09-19T13:56:56;3.33;;;1.60;;
10641;SDS011;5369;49.586;8.646;2023-09-19T13:59:23;3.63;;;1.37;;
10641;SDS011;5369;49.586;8.646;2023-09-19T14:01:50;4.90;;;1.77;;
10641;SDS011;5369;49.586;8.646;2023-09-19T14:04:19;2.87;;;1.53;;
10641;SDS011;5369;49.586;8.646;2023-09-19T14:06:46;5.33;;;1.50;;
10641;SDS011;5369;49.586;8.646;2023-09-19T14:09:12;3.50;;;1.70;;
10641;SDS011;5369;49.586;8.646;2023-09-19T14:11:38;4.97;;;1.60;;
10641;SDS011;5369;49.586;8.646;2023-09-19T14:14:05;3.17;;;1.50;;
10641;SDS011;5369;49.586;8.646;2023-09-19T14:16:31;2.57;;;1.70;;
10641;SDS011;5369;49.586;8.646;2023-09-19T14:18:58;2.17;;;1.50;;
10641;SDS011;5369;49.586;8.646;2023-09-19T14:21:25;3.37;;;1.47;;
10641;SDS011;5369;49.586;8.646;2023-09-19T14:23:51;1.97;;;1.40;;
10641;SDS011;5369;49.586;8.646;2023-09-19T14:26:19;2.53;;;1.60;;
10641;SDS011;5369;49.586;8.646;2023-09-19T14:28:48;2.13;;;1.57;;
10641;SDS011;5369;49.586;8.646;2023-09-19T14:31:14;3.63;;;1.47;;
10641;SDS011;5369;49.586;8.646;2023-09-19T14:33:40;2.40;;;1.40;;
10641;SDS011;5369;49.586;8.646;2023-09-19T14:36:07;5.20;;;1.40;;
10641;SDS011;5369;49.586;8.646;2023-09-19T14:38:34;2.50;;;1.50;;
10641;SDS011;5369;49.586;8.646;2023-09-19T14:41:01;1.63;;;1.30;;
10641;SDS011;5369;49.586;8.646;2023-09-19T14:43:27;3.50;;;1.60;;
10641;SDS011;5369;49.586;8.646;2023-09-19T14:46:04;1.80;;;1.30;;
10641;SDS011;5369;49.586;8.646;2023-09-19T14:48:32;2.77;;;1.30;;
10641;SDS011;5369;49.586;8.646;2023-09-19T14:51:02;2.23;;;1.53;;
10641;SDS011;5369;49.586;8.646;2023-09-19T14:53:29;2.77;;;1.50;;
10641;SDS011;5369;49.586;8.646;2023-09-19T14:55:55;2.50;;;1.70;;
10641;SDS011;5369;49.586;8.646;2023-09-19T14:58:21;3.20;;;1.47;;
10641;SDS011;5369;49.586;8.646;2023-09-19T15:00:47;2.27;;;1.40;;
10641;SDS011;5369;49.586;8.646;2023-09-19T15:03:13;2.17;;;1.40;;
10641;SDS011;5369;49.586;8.646;2023-09-19T15:05:40;3.57;;;1.60;;
10641;SDS011;5369;49.586;8.646;2023-09-19T15:08:06;2.53;;;1.40;;
10641;SDS011;5369;49.586;8.646;2023-09-19T15:10:32;2.47;;;1.40;;
10641;SDS011;5369;49.586;8.646;2023-09-19T15:12:58;2.33;;;1.40;;
10641;SDS011;5369;49.586;8.646;2023-09-19T15:15:24;2.50;;;1.40;;
10641;SDS011;5369;49.586;8.646;2023-09-19T15:17:50;1.63;;;1.20;;
10641;SDS011;5369;49.586;8.646;2023-09-19T15:20:17;2.63;;;1.40;;
10641;SDS011;5369;49.586;8.646;2023-09-19T15:22:43;1.60;;;1.20;;
10641;SDS011;5369;49.586;8.646;2023-09-19T15:25:09;1.77;;;1.50;;
10641;SDS011;5369;49.586;8.646;2023-09-19T15:27:35;3.10;;;1.60;;
10641;SDS011;5369;49.586;8.646;2023-09-19T15:30:02;2.03;;;1.23;;
10641;SDS011;5369;49.586;8.646;2023-09-19T15:32:30;4.17;;;1.50;;
10641;SDS011;5369;49.586;8.646;2023-09-19T15:34:57;2.23;;;1.30;;
10641;SDS011;5369;49.586;8.646;2023-09-19T15:37:23;1.60;;;1.13;;
10641;SDS011;5369;49.586;8.646;2023-09-19T15:39:51;2.27;;;1.60;;
10641;SDS011;5369;49.586;8.646;2023-09-19T15:42:17;2.30;;;1.50;;
10641;SDS011;5369;49.586;8.646;2023-09-19T15:44:43;1.73;;;1.40;;
10641;SDS011;5369;49.586;8.646;2023-09-19T15:47:09;2.23;;;1.33;;
10641;SDS011;5369;49.586;8.646;2023-09-19T15:49:35;3.27;;;1.50;;
10641;SDS011;5369;49.586;8.646;2023-09-19T15:52:03;2.03;;;1.40;;
10641;SDS011;5369;49.586;8.646;2023-09-19T15:54:29;3.40;;;1.40;;
10641;SDS011;5369;49.586;8.646;2023-09-19T15:56:57;3.60;;;1.40;;
10641;SDS011;5369;49.586;8.646;2023-09-19T15:59:25;2.17;;;1.37;;
10641;SDS011;5369;49.586;8.646;2023-09-19T16:01:51;2.10;;;1.20;;